Time,TemperatureF,DewpointF,PressureIn,WindDirection,WindDirectionDegrees,WindSpeedMPH,WindSpeedGustMPH,Humidity,HourlyPrecipIn,Conditions,Clouds,dailyrainin,SoftwareType,DateUTC
2013-03-08 00:01:00,45.7,45.2,30.03,SW,225,0.0,-999.0,98,-99.99,,,0.00,Acu-Link.com,2013-03-08 05:01:00,
2013-03-08 00:16:00,45.5,45.0,30.04,WSW,247,0.0,-999.0,98,-99.99,,,0.00,Acu-Link.com,2013-03-08 05:16:00,
2013-03-08 00:31:00,44.8,44.3,30.04,West,270,0.0,-999.0,98,-99.99,,,0.00,Acu-Link.com,2013-03-08 05:31:00,
2013-03-08 00:46:00,45.0,44.5,30.04,West,270,0.0,-999.0,98,-99.99,,,0.00,Acu-Link.com,2013-03-08 05:46:00,
2013-03-08 01:02:00,44.4,43.9,30.04,West,270,0.0,-999.0,98,-99.99,,,0.00,Acu-Link.com,2013-03-08 06:02:00,
2013-03-08 01:17:00,44.2,43.9,30.04,West,270,0.0,-999.0,99,-99.99,,,0.00,Acu-Link.com,2013-03-08 06:17:00,
2013-03-08 01:32:00,43.7,43.4,30.04,West,270,0.0,-999.0,99,-99.99,,,0.00,Acu-Link.com,2013-03-08 06:32:00,
2013-03-08 01:47:00,43.7,43.4,30.04,West,270,0.0,-999.0,99,-99.99,,,0.00,Acu-Link.com,2013-03-08 06:47:00,
2013-03-08 02:02:00,44.1,43.8,30.04,West,270,0.0,-999.0,99,-99.99,,,0.00,Acu-Link.com,2013-03-08 07:02:00,
2013-03-08 02:18:00,43.3,43.0,30.03,West,270,0.0,-999.0,99,-99.99,,,0.00,Acu-Link.com,2013-03-08 07:18:00,
2013-03-08 02:33:00,43.3,43.0,30.02,West,270,0.0,-999.0,99,-99.99,,,0.00,Acu-Link.com,2013-03-08 07:33:00,
2013-03-08 02:48:00,44.1,43.8,30.02,WNW,292,2.2,-999.0,99,-99.99,,,0.00,Acu-Link.com,2013-03-08 07:48:00,
2013-03-08 03:03:00,44.1,43.8,30.02,WNW,292,1.7,-999.0,99,-99.99,,,0.00,Acu-Link.com,2013-03-08 08:03:00,
2013-03-08 03:19:00,44.6,44.3,30.01,West,270,1.7,-999.0,99,-99.99,,,0.00,Acu-Link.com,2013-03-08 08:19:00,
2013-03-08 03:34:00,44.4,44.1,30.01,WNW,292,2.2,-999.0,99,-99.99,,,0.00,Acu-Link.com,2013-03-08 08:34:00,
2013-03-08 03:49:00,43.9,43.6,30.02,West,270,1.1,-999.0,99,-99.99,,,0.00,Acu-Link.com,2013-03-08 08:49:00,
2013-03-08 04:04:00,43.7,43.4,30.01,WNW,292,2.7,-999.0,99,-99.99,,,0.00,Acu-Link.com,2013-03-08 09:04:00,
2013-03-08 04:19:00,43.7,43.4,30.01,WNW,292,2.2,-999.0,99,-99.99,,,0.00,Acu-Link.com,2013-03-08 09:19:00,
2013-03-08 04:35:00,43.5,43.0,30.01,WNW,292,3.2,-999.0,98,-99.99,,,0.00,Acu-Link.com,2013-03-08 09:35:00,
2013-03-08 04:50:00,43.2,42.4,30.01,West,270,2.2,-999.0,97,-99.99,,,0.00,Acu-Link.com,2013-03-08 09:50:00,
2013-03-08 05:05:00,42.6,41.8,30.01,West,270,1.7,-999.0,97,-99.99,,,0.00,Acu-Link.com,2013-03-08 10:05:00,
2013-03-08 05:20:00,42.8,42.0,30.02,NW,315,2.2,-999.0,97,-99.99,,,0.00,Acu-Link.com,2013-03-08 10:20:00,
2013-03-08 05:35:00,42.8,42.0,30.04,WNW,292,2.7,-999.0,97,-99.99,,,0.00,Acu-Link.com,2013-03-08 10:35:00,
2013-03-08 05:51:00,42.8,41.7,30.03,West,270,2.2,-999.0,96,-99.99,,,0.00,Acu-Link.com,2013-03-08 10:51:00,
2013-03-08 06:06:00,42.8,41.7,30.03,WSW,247,1.7,-999.0,96,-99.99,,,0.00,Acu-Link.com,2013-03-08 11:06:00,
2013-03-08 06:21:00,42.1,41.0,30.02,West,270,0.0,-999.0,96,-99.99,,,0.00,Acu-Link.com,2013-03-08 11:21:00,
2013-03-08 06:36:00,41.4,40.3,30.03,WSW,247,0.0,-999.0,96,-99.99,,,0.00,Acu-Link.com,2013-03-08 11:36:00,
2013-03-08 06:51:00,41.2,40.7,30.04,West,270,0.0,-999.0,98,-99.99,,,0.00,Acu-Link.com,2013-03-08 11:51:00,
2013-03-08 07:07:00,41.9,41.4,30.04,West,270,2.7,-999.0,98,-99.99,,,0.00,Acu-Link.com,2013-03-08 12:07:00,
2013-03-08 07:22:00,43.7,42.4,30.04,NNW,337,2.7,-999.0,95,-99.99,,,0.00,Acu-Link.com,2013-03-08 12:22:00,
2013-03-08 07:37:00,46.2,43.7,30.06,WNW,292,3.2,-999.0,91,-99.99,,,0.00,Acu-Link.com,2013-03-08 12:37:00,
2013-03-08 07:52:00,49.1,44.5,30.06,NW,315,2.7,-999.0,84,-99.99,,,0.00,Acu-Link.com,2013-03-08 12:52:00,
2013-03-08 08:08:00,50.9,44.3,30.06,WNW,292,3.7,-999.0,78,-99.99,,,0.00,Acu-Link.com,2013-03-08 13:08:00,
2013-03-08 08:23:00,52.0,44.0,30.07,ESE,112,1.7,-999.0,74,-99.99,,,0.00,Acu-Link.com,2013-03-08 13:23:00,
2013-03-08 08:38:00,52.3,43.5,30.06,NNW,337,3.7,-999.0,72,-99.99,,,0.00,Acu-Link.com,2013-03-08 13:38:00,
2013-03-08 08:53:00,54.0,44.4,30.07,NW,315,4.7,-999.0,70,-99.99,,,0.00,Acu-Link.com,2013-03-08 13:53:00,
2013-03-08 09:08:00,55.8,45.0,30.06,NNE,22,3.2,-999.0,67,-99.99,,,0.00,Acu-Link.com,2013-03-08 14:08:00,
2013-03-08 09:24:00,57.0,44.1,30.07,WNW,292,4.2,-999.0,62,-99.99,,,0.00,Acu-Link.com,2013-03-08 14:24:00,
2013-03-08 09:39:00,58.5,42.4,30.06,NNW,337,2.7,-999.0,55,-99.99,,,0.00,Acu-Link.com,2013-03-08 14:39:00,
2013-03-08 09:54:00,59.5,40.3,30.07,NE,45,3.2,-999.0,49,-99.99,,,0.00,Acu-Link.com,2013-03-08 14:54:00,
2013-03-08 10:09:00,60.6,41.3,30.06,NNW,337,5.8,-999.0,49,-99.99,,,0.00,Acu-Link.com,2013-03-08 15:09:00,
2013-03-08 10:24:00,61.5,38.8,30.07,NNE,22,6.8,-999.0,43,-99.99,,,0.00,Acu-Link.com,2013-03-08 15:24:00,
2013-03-08 10:40:00,63.5,40.0,30.06,NNE,22,4.7,-999.0,42,-99.99,,,0.00,Acu-Link.com,2013-03-08 15:40:00,
2013-03-08 10:55:00,63.3,40.4,30.06,WNW,292,5.8,-999.0,43,-99.99,,,0.00,Acu-Link.com,2013-03-08 15:55:00,
2013-03-08 11:10:00,63.9,40.4,30.06,NNE,22,3.7,-999.0,42,-99.99,,,0.00,Acu-Link.com,2013-03-08 16:10:00,
2013-03-08 11:25:00,64.2,39.4,30.05,NE,45,4.2,-999.0,40,-99.99,,,0.00,Acu-Link.com,2013-03-08 16:25:00,
2013-03-08 11:40:00,65.8,38.1,30.05,SW,225,3.2,-999.0,36,-99.99,,,0.00,Acu-Link.com,2013-03-08 16:40:00,
2013-03-08 11:56:00,66.2,37.0,30.04,NNE,22,6.3,-999.0,34,-99.99,,,0.00,Acu-Link.com,2013-03-08 16:56:00,
2013-03-08 12:11:00,66.6,36.6,30.04,East,90,2.7,-999.0,33,-99.99,,,0.00,Acu-Link.com,2013-03-08 17:11:00,
2013-03-08 12:26:00,69.1,38.8,30.04,ENE,67,3.7,-999.0,33,-99.99,,,0.00,Acu-Link.com,2013-03-08 17:26:00,
2013-03-08 12:41:00,70.2,39.0,30.03,NE,45,5.8,-999.0,32,-99.99,,,0.00,Acu-Link.com,2013-03-08 17:41:00,
2013-03-08 12:57:00,70.0,39.6,30.02,WNW,292,4.2,-999.0,33,-99.99,,,0.00,Acu-Link.com,2013-03-08 17:57:00,
2013-03-08 13:12:00,70.7,39.4,30.00,North,0,4.2,-999.0,32,-99.99,,,0.00,Acu-Link.com,2013-03-08 18:12:00,
2013-03-08 13:27:00,71.2,38.2,30.00,NE,45,2.7,-999.0,30,-99.99,,,0.00,Acu-Link.com,2013-03-08 18:27:00,
2013-03-08 13:42:00,71.2,38.2,30.00,NW,315,5.3,-999.0,30,-99.99,,,0.00,Acu-Link.com,2013-03-08 18:42:00,
2013-03-08 13:57:00,72.1,37.2,29.98,NW,315,5.8,-999.0,28,-99.99,,,0.00,Acu-Link.com,2013-03-08 18:57:00,
2013-03-08 14:13:00,72.1,37.2,29.98,West,270,3.7,-999.0,28,-99.99,,,0.00,Acu-Link.com,2013-03-08 19:13:00,
2013-03-08 14:28:00,71.8,36.0,29.97,ESE,112,3.2,-999.0,27,-99.99,,,0.00,Acu-Link.com,2013-03-08 19:28:00,
2013-03-08 14:43:00,73.2,36.3,29.96,SSW,202,2.2,-999.0,26,-99.99,,,0.00,Acu-Link.com,2013-03-08 19:43:00,
2013-03-08 14:58:00,72.5,37.5,29.97,NW,315,2.7,-999.0,28,-99.99,,,0.00,Acu-Link.com,2013-03-08 19:58:00,
2013-03-08 15:13:00,73.0,38.0,29.96,NW,315,3.2,-999.0,28,-99.99,,,0.00,Acu-Link.com,2013-03-08 20:13:00,
2013-03-08 15:29:00,72.3,37.4,29.95,NW,315,3.2,-999.0,28,-99.99,,,0.00,Acu-Link.com,2013-03-08 20:29:00,
2013-03-08 15:44:00,73.4,37.4,29.96,NW,315,6.8,-999.0,27,-99.99,,,0.00,Acu-Link.com,2013-03-08 20:44:00,
2013-03-08 15:59:00,73.9,37.8,29.96,ESE,112,4.7,-999.0,27,-99.99,,,0.00,Acu-Link.com,2013-03-08 20:59:00,
2013-03-08 16:14:00,72.7,38.6,29.95,NW,315,6.3,-999.0,29,-99.99,,,0.00,Acu-Link.com,2013-03-08 21:14:00,
2013-03-08 16:29:00,72.9,37.0,29.96,East,90,1.7,-999.0,27,-99.99,,,0.00,Acu-Link.com,2013-03-08 21:29:00,
2013-03-08 16:45:00,73.8,39.5,29.95,NW,315,2.7,-999.0,29,-99.99,,,0.00,Acu-Link.com,2013-03-08 21:45:00,
2013-03-08 17:00:00,76.5,39.1,29.95,NW,315,5.3,-999.0,26,-99.99,,,0.00,Acu-Link.com,2013-03-08 22:00:00,
2013-03-08 17:15:00,75.2,37.9,29.96,NW,315,3.7,-999.0,26,-99.99,,,0.00,Acu-Link.com,2013-03-08 22:15:00,
2013-03-08 17:30:00,75.0,37.8,29.96,SSE,157,3.2,-999.0,26,-99.99,,,0.00,Acu-Link.com,2013-03-08 22:30:00,
2013-03-08 17:46:00,72.9,37.0,29.96,ENE,67,4.2,-999.0,27,-99.99,,,0.00,Acu-Link.com,2013-03-08 22:46:00,
2013-03-08 18:01:00,70.9,37.1,29.97,East,90,4.7,-999.0,29,-99.99,,,0.00,Acu-Link.com,2013-03-08 23:01:00,
2013-03-08 18:16:00,66.9,44.3,29.97,ESE,112,8.3,-999.0,44,-99.99,,,0.00,Acu-Link.com,2013-03-08 23:16:00,
2013-03-08 18:31:00,65.1,45.5,29.98,ESE,112,7.8,-999.0,49,-99.99,,,0.00,Acu-Link.com,2013-03-08 23:31:00,
2013-03-08 18:46:00,63.7,45.2,29.99,East,90,7.3,-999.0,51,-99.99,,,0.00,Acu-Link.com,2013-03-08 23:46:00,
2013-03-08 19:02:00,62.6,45.7,30.00,East,90,4.7,-999.0,54,-99.99,,,0.00,Acu-Link.com,2013-03-09 00:02:00,
2013-03-08 19:17:00,61.5,45.2,30.00,ESE,112,6.8,-999.0,55,-99.99,,,0.00,Acu-Link.com,2013-03-09 00:17:00,
2013-03-08 19:32:00,60.4,45.6,30.01,NNE,22,4.7,-999.0,58,-99.99,,,0.00,Acu-Link.com,2013-03-09 00:32:00,
2013-03-08 19:48:00,59.5,45.6,30.01,ESE,112,4.7,-999.0,60,-99.99,,,0.00,Acu-Link.com,2013-03-09 00:48:00,
2013-03-08 20:03:00,58.3,45.8,30.01,East,90,6.3,-999.0,63,-99.99,,,0.00,Acu-Link.com,2013-03-09 01:03:00,
2013-03-08 20:18:00,57.6,45.5,30.03,ESE,112,4.7,-999.0,64,-99.99,,,0.00,Acu-Link.com,2013-03-09 01:18:00,
2013-03-08 20:33:00,57.0,45.8,30.03,East,90,2.2,-999.0,66,-99.99,,,0.00,Acu-Link.com,2013-03-09 01:33:00,
2013-03-08 20:48:00,56.1,45.7,30.02,ESE,112,2.7,-999.0,68,-99.99,,,0.00,Acu-Link.com,2013-03-09 01:48:00,
2013-03-08 21:04:00,55.6,45.6,30.03,East,90,1.7,-999.0,69,-99.99,,,0.00,Acu-Link.com,2013-03-09 02:04:00,
2013-03-08 21:19:00,54.7,45.9,30.05,SSE,157,1.1,-999.0,72,-99.99,,,0.00,Acu-Link.com,2013-03-09 02:19:00,
2013-03-08 21:34:00,53.2,46.2,30.04,WSW,247,2.7,-999.0,77,-99.99,,,0.00,Acu-Link.com,2013-03-09 02:34:00,
2013-03-08 21:49:00,52.2,46.2,30.05,West,270,0.0,-999.0,80,-99.99,,,0.00,Acu-Link.com,2013-03-09 02:49:00,
2013-03-08 22:04:00,51.1,47.1,30.05,NNW,337,0.0,-999.0,86,-99.99,,,0.00,Acu-Link.com,2013-03-09 03:04:00,
2013-03-08 22:20:00,52.2,47.2,30.05,NW,315,1.1,-999.0,83,-99.99,,,0.00,Acu-Link.com,2013-03-09 03:20:00,
2013-03-08 22:35:00,51.6,46.3,30.05,North,0,1.1,-999.0,82,-99.99,,,0.00,Acu-Link.com,2013-03-09 03:35:00,
2013-03-08 22:50:00,51.4,46.1,30.05,SSW,202,0.0,-999.0,82,-99.99,,,0.00,Acu-Link.com,2013-03-09 03:50:00,
2013-03-08 23:06:00,52.5,46.8,30.04,WNW,292,2.2,-999.0,81,-99.99,,,0.00,Acu-Link.com,2013-03-09 04:06:00,
2013-03-08 23:21:00,53.1,47.1,30.04,NNW,337,2.2,-999.0,80,-99.99,,,0.00,Acu-Link.com,2013-03-09 04:21:00,
2013-03-08 23:36:00,52.0,46.4,30.04,NE,45,0.0,-999.0,81,-99.99,,,0.00,Acu-Link.com,2013-03-09 04:36:00,
2013-03-08 23:51:00,51.6,46.6,30.04,WNW,292,3.2,-999.0,83,-99.99,,,0.00,Acu-Link.com,2013-03-09 04:51:00,